Time;durP1;ratioP1;P1;durP2;ratioP2;P2;SDS_P1;SDS_P2;PMS_P1;PMS_P2;Temp;Humidity;BMP_temperature;BMP_pressure;BME280_temperature;BME280_humidity;BME280_pressure;Samples;Min_cycle;Max_cycle;Signal;HPM_P1;HPM_P2
2022/12/15 00:40:57;;;;;;;0.50;0.10;;;-1.80;1.00;;;;;;6066198;23;20404;-74
2022/12/15 00:43:25;;;;;;;1.30;1.30;;;-1.80;1.00;;;;;;6066323;23;20436;-73
2022/12/15 00:48:39;;;;;;;0.50;0.10;;;-1.70;1.00;;;;;;6069511;23;20716;-73
2022/12/15 00:51:06;;;;;;;0.50;0.20;;;-1.70;1.00;;;;;;6067185;23;20444;-75
2022/12/15 05:31:51;;;;;;;0.50;0.10;;;-2.10;1.00;;;;;;6071157;23;20767;-77
2022/12/15 05:34:22;;;;;;;0.50;0.10;;;-2.10;1.00;;;;;;6070811;23;20494;-77
2022/12/15 05:36:50;;;;;;;0.90;0.90;;;-2.10;1.00;;;;;;6073483;23;20384;-77
2022/12/15 05:39:18;;;;;;;5.30;2.00;;;-2.00;1.00;;;;;;6075800;23;20502;-77
2022/12/15 05:41:47;;;;;;;1.47;1.40;;;-2.00;1.00;;;;;;6071828;23;20419;-77
2022/12/15 05:44:14;;;;;;;0.50;0.20;;;-2.00;1.00;;;;;;6071428;23;20419;-77
2022/12/15 05:46:42;;;;;;;0.77;0.77;;;-2.00;1.00;;;;;;6072055;23;20953;-77
2022/12/15 05:49:14;;;;;;;2.60;2.50;;;-1.90;1.00;;;;;;6072990;23;20991;-81
2022/12/15 05:51:45;;;;;;;0.97;0.87;;;-1.90;1.00;;;;;;6073180;23;20745;-76
2022/12/15 05:54:15;;;;;;;0.50;0.20;;;-1.90;1.00;;;;;;6070489;23;20425;-77
2022/12/15 05:56:43;;;;;;;0.60;0.57;;;-1.90;1.00;;;;;;6076135;23;20388;-77
2022/12/15 05:59:12;;;;;;;6.63;6.33;;;-1.90;1.00;;;;;;6071584;23;20920;-77
2022/12/15 06:01:40;;;;;;;7.37;6.77;;;-1.80;1.00;;;;;;6071692;23;20408;-77
2022/12/15 06:04:08;;;;;;;1.70;1.60;;;;;;;;;;6078187;23;20408;-77
2022/12/15 06:06:36;;;;;;;14.83;3.80;;;-1.80;1.00;;;;;;6071253;23;20458;-76
2022/12/15 06:09:05;;;;;;;0.50;0.10;;;-1.80;1.00;;;;;;6071139;23;20427;-76
2022/12/15 06:11:33;;;;;;;1.73;1.63;;;-1.80;1.00;;;;;;6071547;23;20818;-77
2022/12/15 06:14:01;;;;;;;0.77;0.77;;;-1.80;1.00;;;;;;6071469;23;20419;-78
2022/12/15 06:16:29;;;;;;;1.33;0.70;;;-1.80;1.00;;;;;;6071582;23;20453;-76
2022/12/15 06:18:59;;;;;;;0.50;0.10;;;-1.80;1.00;;;;;;6071993;23;20412;-75
2022/12/15 06:21:29;;;;;;;1.03;0.87;;;-1.80;1.00;;;;;;6073316;23;20928;-76
2022/12/15 06:23:59;;;;;;;0.50;0.10;;;-1.80;1.00;;;;;;6074197;23;20475;-76
2022/12/15 06:26:31;;;;;;;0.50;0.10;;;-1.90;1.00;;;;;;6079297;23;20415;-74
2022/12/15 06:29:01;;;;;;;0.50;0.10;;;-1.90;1.00;;;;;;6077332;23;20395;-75
2022/12/15 06:31:30;;;;;;;0.50;0.10;;;-1.80;1.00;;;;;;6074677;23;20424;-75
2022/12/15 06:33:58;;;;;;;2.00;1.90;;;-1.90;1.00;;;;;;6073162;23;20420;-77
2022/12/15 06:36:30;;;;;;;0.50;0.10;;;-1.80;1.00;;;;;;6076203;23;20811;-76
2022/12/15 06:38:59;;;;;;;0.80;0.40;;;-1.70;1.00;;;;;;6076762;23;20511;-76
2022/12/15 06:41:29;;;;;;;0.50;0.10;;;-1.80;1.00;;;;;;6076793;23;20404;-77
2022/12/15 06:43:58;;;;;;;0.60;0.10;;;-1.70;1.00;;;;;;6077653;23;20384;-76
2022/12/15 06:46:28;;;;;;;2.00;1.90;;;-1.70;1.00;;;;;;6073921;23;20507;-76
2022/12/15 06:48:56;;;;;;;0.50;0.10;;;-1.70;1.00;;;;;;6071685;23;20522;-76
2022/12/15 06:51:27;;;;;;;0.50;0.20;;;-1.70;1.00;;;;;;6071431;23;20448;-76
2022/12/15 06:53:55;;;;;;;0.50;0.10;;;-1.70;1.00;;;;;;6072802;23;20415;-78
2022/12/15 06:56:25;;;;;;;0.50;0.43;;;-1.60;1.00;;;;;;6071794;23;20456;-77
2022/12/15 06:59:02;;;;;;;0.93;0.93;;;-1.70;1.00;;;;;;6073796;23;20562;-77
2022/12/15 07:01:31;;;;;;;0.50;0.10;;;-1.70;1.00;;;;;;6090395;23;20420;-76
2022/12/15 07:04:01;;;;;;;2.70;2.50;;;-1.70;1.00;;;;;;6094582;23;20387;-76
2022/12/15 07:06:34;;;;;;;1.23;1.03;;;-1.70;1.00;;;;;;6087935;23;20420;-77
2022/12/15 07:09:04;;;;;;;0.50;0.10;;;-1.80;1.00;;;;;;6076925;23;20416;-78
2022/12/15 07:11:32;;;;;;;0.83;0.50;;;-1.80;1.00;;;;;;6074759;23;20447;-77
2022/12/15 07:14:01;;;;;;;0.87;0.40;;;-1.80;1.00;;;;;;6075049;23;20483;-76
2022/12/15 07:16:29;;;;;;;0.60;0.47;;;-1.80;1.00;;;;;;6072084;23;20483;-78
2022/12/15 07:18:57;;;;;;;0.50;0.10;;;-1.90;1.00;;;;;;6070072;23;20439;-76
2022/12/15 07:21:25;;;;;;;0.50;0.20;;;-1.90;1.00;;;;;;6068728;23;20416;-77
2022/12/15 07:23:53;;;;;;;0.50;0.10;;;-1.90;1.00;;;;;;6069737;23;20711;-76
2022/12/15 07:26:24;;;;;;;0.50;0.20;;;-1.90;1.00;;;;;;6069467;23;20813;-77
2022/12/15 07:28:53;;;;;;;4.23;1.33;;;-1.90;1.00;;;;;;6068811;23;20424;-76
2022/12/15 07:31:23;;;;;;;2.50;2.40;;;-2.00;1.00;;;;;;6071333;23;20769;-78
2022/12/15 07:33:53;;;;;;;1.70;1.57;;;-1.90;1.00;;;;;;6072043;23;20407;-78
2022/12/15 07:36:21;;;;;;;2.00;1.90;;;-1.90;1.00;;;;;;6072486;23;20415;-77
2022/12/15 07:38:49;;;;;;;0.60;0.50;;;-1.90;1.00;;;;;;6071724;23;20419;-78
2022/12/15 07:41:19;;;;;;;2.33;2.13;;;-1.90;1.00;;;;;;6071493;23;20415;-77
2022/12/15 07:43:47;;;;;;;0.60;0.40;;;-1.90;1.00;;;;;;6072069;23;20435;-76
2022/12/15 07:46:15;;;;;;;0.73;0.73;;;-1.90;1.00;;;;;;6070965;23;20483;-76
2022/12/15 07:48:45;;;;;;;2.20;0.63;;;-1.90;1.00;;;;;;6072516;23;20440;-77
2022/12/15 07:51:24;;;;;;;0.60;0.40;;;-2.10;1.00;;;;;;6075107;23;20843;-76
2022/12/15 07:53:55;;;;;;;4.13;1.33;;;;;;;;;;6075367;23;20491;-77
2022/12/15 07:56:24;;;;;;;0.73;0.73;;;;;;;;;;6072612;23;20447;-78
2022/12/15 07:58:52;;;;;;;0.60;0.23;;;-1.80;1.00;;;;;;6071441;23;20403;-76
2022/12/15 08:01:20;;;;;;;1.33;1.23;;;-1.90;1.00;;;;;;6069370;23;20415;-76
2022/12/15 08:03:49;;;;;;;0.50;0.10;;;-1.90;1.00;;;;;;6069721;23;20407;-77
2022/12/15 08:06:18;;;;;;;0.50;0.10;;;-1.90;1.00;;;;;;6068789;23;20495;-76
2022/12/15 08:08:46;;;;;;;1.07;1.07;;;-1.90;1.00;;;;;;6069718;23;20797;-76
2022/12/15 08:11:20;;;;;;;0.50;0.10;;;-1.90;1.00;;;;;;6070970;23;20526;-78
2022/12/15 08:13:48;;;;;;;0.50;0.10;;;-2.10;1.00;;;;;;6073583;23;20400;-75
2022/12/15 08:16:36;;;;;;;2.20;1.83;;;-1.90;1.00;;;;;;6071656;23;20442;-75
2022/12/15 08:19:10;;;;;;;6.90;6.17;;;-1.90;1.00;;;;;;6069887;23;20399;-76
2022/12/15 08:21:39;;;;;;;2.87;2.67;;;-1.80;1.00;;;;;;6069314;23;20471;-76
2022/12/15 08:24:09;;;;;;;0.60;0.43;;;-1.70;1.00;;;;;;6067736;23;20884;-76
2022/12/15 08:26:38;;;;;;;8.00;0.67;;;-1.70;1.00;;;;;;6068974;23;20454;-77
2022/12/15 08:29:08;;;;;;;6.00;1.27;;;-1.70;1.00;;;;;;6069817;23;20419;-76
2022/12/15 08:31:56;;;;;;;1.70;1.37;;;-1.70;1.00;;;;;;6069535;23;20439;-77
2022/12/15 08:34:25;;;;;;;0.50;0.10;;;-1.80;1.00;;;;;;6076558;23;20418;-77
2022/12/15 08:36:56;;;;;;;0.50;0.20;;;-1.80;1.00;;;;;;6083225;23;20502;-77
2022/12/15 08:39:24;;;;;;;0.63;0.40;;;-1.80;1.00;;;;;;6081012;23;20444;-77
2022/12/15 08:41:52;;;;;;;0.50;0.20;;;-1.80;1.00;;;;;;6078412;23;20414;-77
2022/12/15 08:44:21;;;;;;;0.50;0.20;;;-1.70;1.00;;;;;;6073000;23;20407;-77
2022/12/15 08:46:50;;;;;;;0.50;0.10;;;-1.70;1.00;;;;;;6071835;23;20439;-77
2022/12/15 08:49:18;;;;;;;9.33;8.97;;;-1.70;1.00;;;;;;6072490;23;20420;-77
2022/12/15 08:51:51;;;;;;;0.50;0.23;;;-1.70;1.00;;;;;;6071793;23;20497;-79
2022/12/15 08:54:20;;;;;;;0.50;0.10;;;-1.70;1.00;;;;;;6071306;23;20482;-76
2022/12/15 08:56:50;;;;;;;1.80;0.93;;;-1.70;1.00;;;;;;6071729;23;20417;-77
2022/12/15 08:59:18;;;;;;;12.40;3.40;;;-1.70;1.00;;;;;;6071681;23;20542;-78
2022/12/15 09:01:46;;;;;;;0.50;0.10;;;-1.70;1.00;;;;;;6070125;23;20400;-77
2022/12/15 09:04:15;;;;;;;0.73;0.73;;;-1.70;1.00;;;;;;6070471;23;20412;-77
2022/12/15 09:06:43;;;;;;;0.50;0.10;;;-1.60;1.00;;;;;;6071202;23;20561;-75
2022/12/15 09:09:36;;;;;;;0.93;0.93;;;;;;;;;;6071538;23;20387;-75
2022/12/15 09:12:04;;;;;;;0.50;0.10;;;-1.60;1.00;;;;;;6070452;23;20443;-77
2022/12/15 09:14:32;;;;;;;0.50;0.20;;;-1.60;1.00;;;;;;6070124;23;20408;-76
2022/12/15 09:17:00;;;;;;;0.77;0.60;;;-1.60;1.00;;;;;;6070563;23;20893;-76
2022/12/15 09:19:28;;;;;;;1.37;1.03;;;-1.60;1.00;;;;;;6070930;23;20416;-77
2022/12/15 09:21:56;;;;;;;0.50;0.30;;;-1.70;1.00;;;;;;6068835;23;20408;-77
2022/12/15 09:24:24;;;;;;;1.80;1.70;;;-1.70;1.00;;;;;;6070408;23;20420;-79
2022/12/15 09:27:03;;;;;;;0.50;0.20;;;-1.70;1.00;;;;;;6070776;23;20395;-76
2022/12/15 09:29:31;;;;;;;0.50;0.30;;;-1.80;1.00;;;;;;6071318;23;20459;-76
2022/12/15 09:31:59;;;;;;;0.90;0.50;;;-1.70;1.00;;;;;;6072785;23;20439;-76
2022/12/15 09:34:27;;;;;;;0.50;0.10;;;-1.60;1.00;;;;;;6076983;23;20435;-76
2022/12/15 09:36:56;;;;;;;0.50;0.10;;;-1.60;1.00;;;;;;6077012;23;20419;-76
2022/12/15 09:39:24;;;;;;;4.90;4.43;;;-1.60;1.00;;;;;;6075368;23;20923;-75
2022/12/15 09:41:54;;;;;;;0.50;0.10;;;-1.50;1.00;;;;;;6073579;23;20403;-76
2022/12/15 09:44:25;;;;;;;1.90;1.80;;;-1.50;1.00;;;;;;6074195;23;20414;-76
2022/12/15 09:47:05;;;;;;;0.60;0.40;;;-1.40;1.00;;;;;;6082808;23;20412;-76
2022/12/15 09:49:52;;;;;;;5.10;4.67;;;-1.30;1.00;;;;;;6092240;23;20438;-77
2022/12/15 09:52:23;;;;;;;1.53;1.33;;;-1.30;1.00;;;;;;6089461;23;20491;-77
2022/12/15 09:54:51;;;;;;;0.50;0.10;;;-1.30;1.00;;;;;;6085187;23;20935;-77
2022/12/15 09:57:26;;;;;;;0.60;0.40;;;-1.30;1.00;;;;;;6080741;23;20412;-77
2022/12/15 10:00:20;;;;;;;0.50;0.30;;;-1.30;1.00;;;;;;6082576;23;20463;-77
2022/12/15 10:03:23;;;;;;;0.50;0.10;;;-1.30;1.00;;;;;;6081153;23;20452;-75
2022/12/15 10:06:05;;;;;;;20.53;14.80;;;-1.20;1.00;;;;;;6080203;23;20474;-76
2022/12/15 10:08:56;;;;;;;0.60;0.40;;;-1.20;1.00;;;;;;6078880;23;20483;-77
2022/12/15 10:11:40;;;;;;;2.10;2.00;;;-1.20;1.00;;;;;;6076866;23;20408;-75
2022/12/15 10:14:20;;;;;;;0.70;0.53;;;-1.20;1.00;;;;;;6072596;23;20387;-77
2022/12/15 10:17:02;;;;;;;2.93;2.83;;;-1.20;1.00;;;;;;6071258;23;20407;-76
2022/12/15 10:19:39;;;;;;;0.50;0.10;;;-1.20;1.00;;;;;;6069142;23;20395;-77
2022/12/15 10:22:12;;;;;;;0.60;0.60;;;-1.10;1.00;;;;;;6070620;23;20411;-76
2022/12/15 10:24:41;;;;;;;7.07;6.40;;;-1.20;1.00;;;;;;6070670;23;20419;-78
2022/12/15 10:27:58;;;;;;;2.87;2.67;;;-1.20;1.00;;;;;;6071064;23;20729;-77
2022/12/15 10:30:26;;;;;;;0.50;0.10;;;-1.20;1.00;;;;;;6070915;23;20490;-77
2022/12/15 10:33:02;;;;;;;0.50;0.30;;;-1.10;1.00;;;;;;6071519;23;20479;-77
2022/12/15 10:35:32;;;;;;;5.40;3.00;;;-1.10;1.00;;;;;;6070792;23;20589;-78
2022/12/15 10:38:03;;;;;;;1.20;1.20;;;-1.10;1.00;;;;;;6070070;23;20408;-78
2022/12/15 10:40:47;;;;;;;0.50;0.10;;;-1.00;1.00;;;;;;6073832;23;20790;-76
2022/12/15 10:43:26;;;;;;;0.50;0.20;;;-1.00;1.00;;;;;;6075776;23;20503;-76
2022/12/15 10:46:09;;;;;;;0.90;0.73;;;-1.10;1.00;;;;;;6083481;23;20427;-76
2022/12/15 10:48:39;;;;;;;1.37;0.87;;;;;;;;;;6083732;23;20415;-79
2022/12/15 10:51:19;;;;;;;0.50;0.20;;;-1.10;1.00;;;;;;6077139;23;20407;-77
2022/12/15 10:53:51;;;;;;;0.50;0.10;;;-1.10;1.00;;;;;;6072687;23;20427;-78
2022/12/15 10:56:22;;;;;;;8.43;7.80;;;-1.10;1.00;;;;;;6070561;23;20519;-76
2022/12/15 10:59:02;;;;;;;1.47;1.37;;;-1.10;1.00;;;;;;6071320;23;20395;-78
2022/12/15 11:01:32;;;;;;;0.50;0.10;;;-1.10;1.00;;;;;;6070948;23;20996;-77
2022/12/15 11:04:02;;;;;;;3.63;2.40;;;-1.00;1.00;;;;;;6071175;23;20402;-77
2022/12/15 11:06:33;;;;;;;0.50;0.10;;;-0.90;1.00;;;;;;6071661;23;20478;-77
2022/12/15 11:09:09;;;;;;;1.57;1.40;;;-0.90;1.00;;;;;;6071953;23;20823;-77
2022/12/15 11:14:43;;;;;;;1.33;1.23;;;-0.90;1.00;;;;;;6073737;23;20777;-78
2022/12/15 11:17:16;;;;;;;2.93;1.23;;;-0.80;1.00;;;;;;6072431;23;20395;-77
2022/12/15 11:19:50;;;;;;;2.80;1.20;;;-0.90;1.00;;;;;;6074030;23;20508;-76
2022/12/15 11:22:35;;;;;;;0.50;0.30;;;-0.90;1.00;;;;;;6070620;23;20412;-78
2022/12/15 11:25:12;;;;;;;0.50;0.10;;;-0.90;1.00;;;;;;6070290;23;20423;-75
2022/12/15 11:27:43;;;;;;;0.50;0.10;;;-0.90;1.00;;;;;;6071810;23;20437;-77
2022/12/15 11:30:14;;;;;;;0.70;0.70;;;-0.80;1.00;;;;;;6071080;23;20985;-76
2022/12/15 11:32:47;;;;;;;4.13;1.70;;;-0.80;1.00;;;;;;6070976;23;20479;-76
2022/12/15 11:35:22;;;;;;;0.50;0.10;;;-0.80;1.00;;;;;;6071130;23;20937;-76
2022/12/15 11:37:55;;;;;;;0.50;0.10;;;-0.80;1.00;;;;;;6070926;23;20971;-77
2022/12/15 11:40:39;;;;;;;0.50;0.10;;;-0.90;1.00;;;;;;6071004;23;20419;-75
2022/12/15 11:43:31;;;;;;;0.63;0.47;;;-0.80;1.00;;;;;;6069207;23;20467;-77
2022/12/15 11:46:16;;;;;;;8.37;7.67;;;-0.80;1.00;;;;;;6069985;23;20412;-77
2022/12/15 11:48:56;;;;;;;1.20;0.97;;;-0.70;1.00;;;;;;6071064;23;20905;-77
2022/12/15 11:51:35;;;;;;;0.50;0.10;;;-0.70;1.00;;;;;;6074903;23;20384;-77
2022/12/15 11:54:15;;;;;;;1.90;1.10;;;-0.70;1.00;;;;;;6070615;23;20454;-76
2022/12/15 11:56:47;;;;;;;0.50;0.10;;;-0.80;1.00;;;;;;6071352;23;20426;-77
2022/12/15 11:59:37;;;;;;;1.20;0.90;;;-0.80;1.00;;;;;;6071946;23;20386;-77
2022/12/15 12:02:28;;;;;;;0.50;0.10;;;-0.80;1.00;;;;;;6072416;23;20495;-77
2022/12/15 12:05:09;;;;;;;0.50;0.10;;;-0.80;1.00;;;;;;6074642;23;21067;-79
2022/12/15 12:07:44;;;;;;;0.50;0.10;;;-0.70;1.00;;;;;;6074478;23;20935;-78
2022/12/15 12:10:30;;;;;;;2.00;1.07;;;-0.70;1.00;;;;;;6073753;23;20427;-77
2022/12/15 12:13:08;;;;;;;0.80;0.27;;;-0.70;1.00;;;;;;6073958;23;20423;-76
2022/12/15 12:15:45;;;;;;;1.10;1.10;;;-0.60;1.00;;;;;;6070554;23;20483;-74
2022/12/15 12:18:20;;;;;;;0.50;0.10;;;-0.70;1.00;;;;;;6067707;23;20407;-72
2022/12/15 12:20:51;;;;;;;0.50;0.10;;;-0.60;1.00;;;;;;6068418;23;20407;-72
2022/12/15 12:23:26;;;;;;;0.50;0.20;;;-0.60;1.00;;;;;;6068846;23;20744;-73
2022/12/15 12:26:02;;;;;;;1.23;1.13;;;-0.60;1.00;;;;;;6067858;23;20423;-71
2022/12/15 12:28:41;;;;;;;0.50;0.10;;;-0.50;1.00;;;;;;6067032;23;20415;-72
2022/12/15 12:31:21;;;;;;;11.17;9.97;;;-0.60;1.00;;;;;;6067270;23;20384;-73
2022/12/15 12:33:55;;;;;;;0.60;0.40;;;-0.60;1.00;;;;;;6068162;23;20443;-73
2022/12/15 12:36:23;;;;;;;1.50;1.40;;;-0.60;1.00;;;;;;6068266;23;20467;-74
2022/12/15 12:38:54;;;;;;;0.50;0.10;;;-0.70;1.00;;;;;;6067253;23;20400;-73
2022/12/15 12:41:31;;;;;;;1.87;1.77;;;-0.70;1.00;;;;;;6068383;23;20392;-74
2022/12/15 12:44:03;;;;;;;3.07;0.97;;;-0.70;1.00;;;;;;6066947;23;20419;-73
2022/12/15 12:46:36;;;;;;;2.73;1.87;;;-0.80;1.00;;;;;;6066434;23;20811;-73
2022/12/15 12:49:11;;;;;;;2.77;2.03;;;-0.80;1.00;;;;;;6067447;23;20524;-74
2022/12/15 12:51:41;;;;;;;2.50;2.10;;;-0.90;1.00;;;;;;6068430;23;20403;-74
2022/12/15 12:54:41;;;;;;;0.50;0.17;;;-1.00;1.00;;;;;;6067576;23;20451;-73
2022/12/15 12:57:31;;;;;;;1.23;1.07;;;-1.10;1.00;;;;;;6067798;23;20428;-73
2022/12/15 13:00:01;;;;;;;0.50;0.27;;;-1.10;1.00;;;;;;6066696;23;20489;-73
2022/12/15 13:03:08;;;;;;;0.50;0.20;;;-1.10;1.00;;;;;;6067232;23;20416;-73
2022/12/15 13:05:37;;;;;;;2.40;1.70;;;-1.20;1.00;;;;;;6066746;23;20967;-73
2022/12/15 13:08:48;;;;;;;0.50;0.20;;;-1.10;1.00;;;;;;6067748;23;20415;-73
2022/12/15 13:11:58;;;;;;;0.50;0.10;;;-1.10;1.00;;;;;;6068727;23;20411;-73
2022/12/15 13:14:54;;;;;;;2.53;2.33;;;-1.10;1.00;;;;;;6067837;23;20436;-74
2022/12/15 13:17:30;;;;;;;0.50;0.10;;;-1.10;1.00;;;;;;6066954;23;20748;-73
2022/12/15 13:20:21;;;;;;;6.27;5.87;;;-1.10;1.00;;;;;;6066999;23;20400;-73
2022/12/15 13:22:50;;;;;;;1.40;1.30;;;-0.80;1.00;;;;;;6060722;23;20419;-73
2022/12/15 13:25:45;;;;;;;1.20;1.20;;;-1.10;1.00;;;;;;6068560;23;20408;-73
2022/12/15 13:28:43;;;;;;;0.50;0.10;;;-1.20;1.00;;;;;;6066638;23;20408;-74
2022/12/15 13:31:26;;;;;;;3.10;1.70;;;-1.10;1.00;;;;;;6068729;23;20407;-73
2022/12/15 13:34:15;;;;;;;0.70;0.60;;;-1.10;1.00;;;;;;6068288;23;20443;-74
2022/12/15 13:36:45;;;;;;;1.10;0.40;;;-1.00;1.00;;;;;;6068769;23;20431;-74
2022/12/15 13:39:49;;;;;;;1.37;1.27;;;-1.00;1.00;;;;;;6068993;23;20400;-74
2022/12/15 13:42:32;;;;;;;0.50;0.10;;;-1.00;1.00;;;;;;6069505;23;20396;-74
2022/12/15 13:45:46;;;;;;;0.93;0.83;;;-0.90;1.00;;;;;;6069018;23;20774;-74
2022/12/15 13:48:34;;;;;;;0.50;0.10;;;-0.90;1.00;;;;;;6068752;23;20506;-74
2022/12/15 13:51:19;;;;;;;0.50;0.10;;;-0.90;1.00;;;;;;6068801;23;20868;-74
2022/12/15 13:53:52;;;;;;;1.77;0.93;;;-0.80;1.00;;;;;;6068527;23;20446;-74
2022/12/15 13:56:44;;;;;;;0.63;0.63;;;-0.70;1.00;;;;;;6068181;23;20435;-74
2022/12/15 13:59:33;;;;;;;0.87;0.83;;;-0.70;1.00;;;;;;6068489;23;20407;-73
2022/12/15 14:02:01;;;;;;;1.13;0.60;;;-0.70;1.00;;;;;;6068631;23;20391;-74
2022/12/15 14:04:31;;;;;;;0.50;0.10;;;-0.70;1.00;;;;;;6068204;23;20403;-74
2022/12/15 14:07:02;;;;;;;3.23;3.03;;;-0.70;1.00;;;;;;6068326;23;20818;-73
2022/12/15 14:09:33;;;;;;;0.77;0.77;;;-0.70;1.00;;;;;;6067864;23;20418;-75
2022/12/15 14:12:02;;;;;;;2.77;2.67;;;-0.70;1.00;;;;;;6066944;23;20891;-74
2022/12/15 14:14:33;;;;;;;4.73;0.70;;;-0.70;1.00;;;;;;6067230;23;20769;-73
2022/12/15 14:17:02;;;;;;;0.60;0.30;;;-0.70;1.00;;;;;;6070269;23;20447;-72
2022/12/15 14:19:40;;;;;;;0.50;0.10;;;-0.70;1.00;;;;;;6072749;23;20421;-74
2022/12/15 14:22:27;;;;;;;3.43;1.80;;;-0.70;1.00;;;;;;6068715;23;20395;-73
2022/12/15 14:25:19;;;;;;;0.50;0.10;;;-0.90;1.00;;;;;;6067439;23;20435;-74
2022/12/15 14:27:47;;;;;;;0.50;0.10;;;-1.00;1.00;;;;;;6068497;23;20385;-75
2022/12/15 14:30:24;;;;;;;6.63;5.97;;;-1.00;1.00;;;;;;6067702;23;20789;-74
2022/12/15 14:32:56;;;;;;;3.50;3.20;;;-1.00;1.00;;;;;;6067763;23;20419;-74
2022/12/15 14:35:30;;;;;;;0.50;0.10;;;-1.10;1.00;;;;;;6067967;23;20976;-74
2022/12/15 14:38:01;;;;;;;24.80;20.23;;;-1.10;1.00;;;;;;6067264;23;20389;-74
2022/12/15 14:40:30;;;;;;;0.50;0.10;;;-1.10;1.00;;;;;;6067630;23;20433;-74
2022/12/15 14:42:58;;;;;;;0.50;0.10;;;-1.00;1.00;;;;;;6067505;23;20408;-74
2022/12/15 14:45:30;;;;;;;1.53;1.40;;;-1.00;1.00;;;;;;6067688;23;20440;-74
2022/12/15 14:48:01;;;;;;;0.83;0.57;;;-1.00;1.00;;;;;;6068125;23;20407;-74
2022/12/15 14:50:51;;;;;;;0.50;0.40;;;-1.10;1.00;;;;;;6067575;23;20908;-74
2022/12/15 14:53:24;;;;;;;1.47;1.23;;;-1.10;1.00;;;;;;6070605;23;20411;-73
2022/12/15 14:55:52;;;;;;;0.53;0.27;;;;;;;;;;6069227;23;20447;-73
2022/12/15 14:58:30;;;;;;;0.63;0.50;;;-1.30;1.00;;;;;;6067896;23;20408;-74
2022/12/15 15:01:00;;;;;;;4.77;1.30;;;-1.10;1.00;;;;;;6068771;23;20444;-74
2022/12/15 15:03:36;;;;;;;1.67;1.43;;;-1.20;1.00;;;;;;6067704;23;20439;-74
2022/12/15 15:06:15;;;;;;;0.83;0.77;;;-1.30;1.00;;;;;;6068205;23;20430;-74
2022/12/15 15:08:47;;;;;;;0.50;0.20;;;-1.30;1.00;;;;;;6068640;23;20390;-74
2022/12/15 15:11:25;;;;;;;0.53;0.30;;;-1.30;1.00;;;;;;6067630;23;20416;-74
2022/12/15 15:13:55;;;;;;;1.70;1.60;;;-1.40;1.00;;;;;;6067456;23;20416;-75
2022/12/15 15:16:23;;;;;;;0.50;0.10;;;-1.40;1.00;;;;;;6067234;23;20447;-73
2022/12/15 15:18:55;;;;;;;2.50;2.40;;;-1.40;1.00;;;;;;6067296;23;20432;-73
2022/12/15 15:21:27;;;;;;;0.50;0.10;;;-1.50;1.00;;;;;;6067139;23;20864;-74
2022/12/15 15:24:00;;;;;;;0.63;0.63;;;-1.50;1.00;;;;;;6066997;23;20408;-73
2022/12/15 15:26:29;;;;;;;0.97;0.53;;;-1.50;1.00;;;;;;6067045;23;20487;-75
2022/12/15 15:28:58;;;;;;;0.50;0.30;;;-1.60;1.00;;;;;;6067469;23;20751;-73
2022/12/15 15:31:34;;;;;;;0.50;0.10;;;-1.50;1.00;;;;;;6067265;23;20419;-75
2022/12/15 15:34:08;;;;;;;0.50;0.10;;;-1.50;1.00;;;;;;6066268;23;20937;-74
2022/12/15 15:36:39;;;;;;;0.50;0.10;;;-1.60;1.00;;;;;;6066925;23;20483;-73
2022/12/15 15:39:14;;;;;;;2.60;1.80;;;-0.70;1.00;;;;;;6067478;23;20899;-74
2022/12/15 15:41:42;;;;;;;6.13;5.83;;;-1.50;1.00;;;;;;6068159;23;20411;-73
2022/12/15 15:44:13;;;;;;;0.60;0.40;;;-1.60;1.00;;;;;;6066059;23;20422;-74
2022/12/15 15:46:46;;;;;;;8.53;3.47;;;-1.60;1.00;;;;;;6067111;23;20423;-73
2022/12/15 15:49:17;;;;;;;1.40;1.30;;;-1.60;1.00;;;;;;6067648;23;20395;-73
2022/12/15 15:51:47;;;;;;;1.77;1.67;;;-1.60;1.00;;;;;;6066504;23;20439;-73
2022/12/15 15:54:17;;;;;;;0.50;0.30;;;-1.60;1.00;;;;;;6067257;23;20411;-73
2022/12/15 15:56:49;;;;;;;0.50;0.10;;;-1.60;1.00;;;;;;6067113;23;20959;-74
2022/12/15 15:59:19;;;;;;;1.07;0.60;;;-1.60;1.00;;;;;;6067474;23;20915;-75
2022/12/15 16:01:53;;;;;;;0.50;0.10;;;-1.70;1.00;;;;;;6067394;23;20408;-75
2022/12/15 16:04:23;;;;;;;0.93;0.93;;;-1.70;1.00;;;;;;6067775;23;20927;-73
2022/12/15 16:06:53;;;;;;;0.50;0.10;;;-1.70;1.00;;;;;;6066931;23;20438;-74
2022/12/15 16:09:21;;;;;;;0.50;0.20;;;-1.70;1.00;;;;;;6067562;23;20415;-73
2022/12/15 16:11:49;;;;;;;1.77;1.25;;;-1.70;1.00;;;;;;6069884;23;20406;-73
2022/12/15 16:14:17;;;;;;;0.50;0.10;;;-1.80;1.00;;;;;;6074811;23;20183;-73
2022/12/15 16:16:45;;;;;;;3.60;2.93;;;-1.70;1.00;;;;;;6068182;23;20560;-74
2022/12/15 16:19:13;;;;;;;0.50;0.37;;;-1.80;1.00;;;;;;6068508;23;20407;-74
2022/12/15 16:21:43;;;;;;;2.43;1.70;;;-1.80;1.00;;;;;;6070576;23;20404;-73
2022/12/15 16:24:16;;;;;;;0.60;0.40;;;-1.80;1.00;;;;;;6068664;23;20490;-74
2022/12/15 16:26:49;;;;;;;0.50;0.10;;;-1.80;1.00;;;;;;6070395;23;20511;-73
2022/12/15 16:29:20;;;;;;;0.50;0.10;;;-1.80;1.00;;;;;;6071128;23;20388;-73
2022/12/15 16:31:48;;;;;;;0.50;0.10;;;-1.90;1.00;;;;;;6069504;23;20867;-72
2022/12/15 16:34:18;;;;;;;0.50;0.10;;;-1.90;1.00;;;;;;6069114;23;20786;-74
2022/12/15 16:36:46;;;;;;;0.50;0.10;;;-1.90;1.00;;;;;;6069033;23;20786;-74
2022/12/15 16:39:29;;;;;;;1.17;1.07;;;0.10;1.00;;;;;;6073511;23;20408;-73
2022/12/15 16:41:57;;;;;;;0.50;0.10;;;-1.90;1.00;;;;;;6069339;23;20510;-73
2022/12/15 16:44:27;;;;;;;1.20;1.20;;;-1.90;1.00;;;;;;6067506;23;20436;-75
2022/12/15 16:46:56;;;;;;;0.50;0.10;;;-1.90;1.00;;;;;;6068216;23;20447;-74
2022/12/15 16:49:26;;;;;;;0.50;0.10;;;;;;;;;;6068453;23;20490;-75
2022/12/15 16:51:54;;;;;;;1.30;1.20;;;-1.90;1.00;;;;;;6067790;23;20478;-74
2022/12/15 16:54:26;;;;;;;0.50;0.20;;;-1.90;1.00;;;;;;6065433;23;20459;-76
2022/12/15 16:56:55;;;;;;;0.77;0.77;;;-1.90;1.00;;;;;;6068217;23;20611;-74
2022/12/15 16:59:26;;;;;;;0.50;0.10;;;-1.80;1.00;;;;;;6068297;23;20479;-77
2022/12/15 17:02:16;;;;;;;0.50;0.10;;;-1.80;1.00;;;;;;6067927;23;20448;-74
2022/12/15 17:04:44;;;;;;;0.50;0.30;;;-1.80;1.00;;;;;;6068221;23;20408;-74
2022/12/15 17:07:14;;;;;;;0.50;0.10;;;-1.80;1.00;;;;;;6067647;23;20542;-75
2022/12/15 17:09:49;;;;;;;0.83;0.83;;;;;;;;;;6068362;23;20391;-74
2022/12/15 17:12:18;;;;;;;3.50;3.00;;;-1.90;1.00;;;;;;6069632;23;20472;-75
2022/12/15 17:14:46;;;;;;;3.27;1.70;;;;;;;;;;6075417;23;20419;-75
2022/12/15 17:17:16;;;;;;;1.53;1.43;;;-1.80;1.00;;;;;;6077580;23;20451;-75
2022/12/15 17:19:44;;;;;;;1.00;0.53;;;-1.90;1.00;;;;;;6080046;23;20416;-74
2022/12/15 17:22:32;;;;;;;7.50;7.13;;;-1.90;1.00;;;;;;6069211;23;20432;-73
2022/12/15 17:25:01;;;;;;;0.57;0.40;;;-2.00;1.00;;;;;;6068246;23;20412;-76
2022/12/15 17:27:30;;;;;;;0.50;0.10;;;-2.00;1.00;;;;;;6067153;23;20435;-76
2022/12/15 17:29:59;;;;;;;0.50;0.30;;;-2.00;1.00;;;;;;6067604;23;20463;-74
2022/12/15 17:32:27;;;;;;;0.50;0.10;;;-2.00;1.00;;;;;;6066565;23;20440;-74
2022/12/15 17:34:57;;;;;;;0.50;0.10;;;-2.00;1.00;;;;;;6067170;23;20412;-75
2022/12/15 17:37:26;;;;;;;1.23;1.13;;;;;;;;;;6066502;23;20470;-73
2022/12/15 17:40:03;;;;;;;3.17;1.90;;;-2.00;1.00;;;;;;6065899;23;20396;-74
2022/12/15 17:42:31;;;;;;;0.50;0.20;;;-2.00;1.00;;;;;;6065513;23;20479;-73
2022/12/15 17:44:59;;;;;;;20.30;6.83;;;;;;;;;;6067488;23;20416;-73
2022/12/15 17:47:29;;;;;;;0.73;0.57;;;-1.90;1.00;;;;;;6065373;23;20435;-72
2022/12/15 17:49:57;;;;;;;2.40;1.47;;;;;;;;;;6066532;23;20739;-76
2022/12/15 17:52:28;;;;;;;0.50;0.10;;;-1.90;1.00;;;;;;6066851;23;20525;-74
2022/12/15 17:54:56;;;;;;;5.07;1.33;;;-1.90;1.00;;;;;;6067131;23;20411;-74
2022/12/15 17:57:25;;;;;;;1.77;0.73;;;-1.90;1.00;;;;;;6066222;23;21122;-74
2022/12/15 17:59:53;;;;;;;0.53;0.30;;;-1.90;1.00;;;;;;6067226;23;20419;-74
2022/12/15 18:02:21;;;;;;;1.23;1.13;;;-1.90;1.00;;;;;;6066361;23;20449;-75
2022/12/15 18:04:49;;;;;;;0.50;0.10;;;-2.00;1.00;;;;;;6066479;23;20499;-75
2022/12/15 18:07:20;;;;;;;1.70;1.60;;;-1.90;1.00;;;;;;6070949;23;20443;-75
2022/12/15 18:09:51;;;;;;;1.50;1.43;;;-1.90;1.00;;;;;;6067025;23;20440;-74
2022/12/15 18:12:21;;;;;;;0.50;0.10;;;-1.90;1.00;;;;;;6066068;23;20404;-76
2022/12/15 18:14:51;;;;;;;1.07;0.97;;;-1.90;1.00;;;;;;6066242;23;20406;-76
2022/12/15 18:17:19;;;;;;;0.93;0.93;;;-1.90;1.00;;;;;;6067268;23;20447;-75
2022/12/15 18:19:47;;;;;;;0.50;0.10;;;-1.90;1.00;;;;;;6067720;23;20638;-74
2022/12/15 18:22:19;;;;;;;0.50;0.20;;;-1.90;1.00;;;;;;6067476;23;20440;-75
2022/12/15 18:24:47;;;;;;;0.50;0.10;;;-1.80;1.00;;;;;;6067433;23;20424;-75
2022/12/15 18:27:23;;;;;;;0.83;0.83;;;-1.90;1.00;;;;;;6067527;23;20424;-74
2022/12/15 18:29:52;;;;;;;3.67;3.40;;;-1.90;1.00;;;;;;6067322;23;20392;-72
2022/12/15 18:32:24;;;;;;;0.63;0.30;;;-2.00;1.00;;;;;;6067123;23;20451;-72
2022/12/15 18:34:52;;;;;;;0.53;0.30;;;-2.00;1.00;;;;;;6066801;23;20725;-72
2022/12/15 18:37:23;;;;;;;6.13;3.20;;;-2.00;1.00;;;;;;6067252;23;20531;-72
2022/12/15 18:39:51;;;;;;;5.37;5.03;;;-2.10;1.00;;;;;;6068423;23;20384;-72
2022/12/15 18:42:21;;;;;;;1.10;1.07;;;-2.10;1.00;;;;;;6067939;23;20478;-73
2022/12/15 18:44:52;;;;;;;0.50;0.20;;;-2.10;1.00;;;;;;6067761;23;20459;-73
2022/12/15 18:47:23;;;;;;;6.10;5.60;;;-1.00;1.00;;;;;;6069691;23;20424;-72
2022/12/15 18:49:51;;;;;;;1.70;0.60;;;-2.10;1.00;;;;;;6067524;23;20944;-71
2022/12/15 18:52:21;;;;;;;3.00;2.40;;;-2.10;1.00;;;;;;6067528;23;20479;-72
2022/12/15 18:54:51;;;;;;;2.63;2.43;;;-2.10;1.00;;;;;;6067534;23;20767;-72
2022/12/15 18:57:27;;;;;;;1.43;1.33;;;-2.20;1.00;;;;;;6067842;23;20451;-72